Time;durP1;ratioP1;P1;durP2;ratioP2;P2;SDS_P1;SDS_P2;PMS_P1;PMS_P2;Temp;Humidity;BMP_temperature;BMP_pressure;BME280_temperature;BME280_humidity;BME280_pressure;Samples;Min_cycle;Max_cycle;Signal;HPM_P1;HPM_P2
2022/08/23 00:02:27;;;;;;;3.53;2.27;;;24.90;46.10;;;27.18;36.52;101448.09;5054595;28;20205;-62
2022/08/23 00:04:55;;;;;;;3.57;2.50;;;24.90;46.30;;;27.18;36.26;101440.78;5055153;28;20674;-62
2022/08/23 00:07:41;;;;;;;6.30;2.63;;;24.90;46.40;;;27.15;36.61;101446.72;5054941;28;20263;-61
2022/08/23 00:10:12;;;;;;;2.40;1.93;;;24.90;46.60;;;27.17;36.32;101447.25;5055045;28;20227;-62
2022/08/23 00:12:40;;;;;;;3.63;2.60;;;24.80;46.50;;;27.21;36.47;101450.25;5054447;28;20213;-61
2022/08/23 00:15:13;;;;;;;2.43;2.03;;;24.80;46.50;;;27.20;36.24;101444.03;5054963;28;20197;-60
2022/08/23 00:17:43;;;;;;;6.27;2.30;;;24.80;46.60;;;27.22;36.08;101447.28;5054739;28;20186;-62
2022/08/23 00:20:16;;;;;;;3.23;2.37;;;24.80;46.60;;;27.19;36.34;101449.72;5054909;28;20231;-61
2022/08/23 00:22:46;;;;;;;3.60;2.50;;;24.80;46.80;;;27.18;36.48;101450.78;5054356;28;20233;-62
2022/08/23 00:25:14;;;;;;;2.77;2.30;;;24.80;46.80;;;27.12;36.59;101446.47;5055075;28;20194;-61
2022/08/23 00:27:43;;;;;;;3.10;1.83;;;24.80;47.00;;;27.12;36.80;101449.16;5070288;28;20197;-61
2022/08/23 00:30:12;;;;;;;5.33;2.33;;;24.70;47.00;;;27.09;36.87;101449.69;5054659;28;20532;-63
2022/08/23 00:32:41;;;;;;;2.27;2.00;;;24.70;47.10;;;27.06;36.48;101442.09;5053864;28;20578;-62
2022/08/23 00:35:11;;;;;;;4.37;2.30;;;24.70;47.20;;;27.03;36.62;101448.06;5054443;28;20197;-62
2022/08/23 00:37:56;;;;;;;4.43;2.30;;;24.70;47.30;;;26.95;37.38;101448.56;5054231;28;20186;-61
2022/08/23 00:40:46;;;;;;;7.07;2.30;;;24.60;47.50;;;26.86;37.10;101451.78;5054097;28;20205;-62
2022/08/23 00:49:09;;;;;;;6.03;2.70;;;24.50;47.90;;;26.67;37.38;101447.88;5054136;28;20201;-61
2022/08/23 00:51:45;;;;;;;4.70;2.30;;;24.40;48.00;;;26.67;37.97;101450.59;5053608;28;20220;-61
2022/08/23 00:54:23;;;;;;;5.43;2.87;;;24.40;48.20;;;26.69;37.40;101453.03;5054393;28;20222;-61
2022/08/23 00:56:52;;;;;;;4.00;2.30;;;24.40;48.20;;;26.61;37.56;101457.06;5054145;28;20197;-62
2022/08/23 00:59:20;;;;;;;2.57;2.37;;;24.40;48.40;;;26.63;37.90;101452.19;5054264;28;20193;-62
2022/08/23 01:01:48;;;;;;;2.50;2.30;;;24.30;48.40;;;26.66;37.62;101448.97;5053726;28;20206;-61
2022/08/23 01:04:16;;;;;;;6.20;2.57;;;24.30;48.50;;;26.68;37.49;101452.22;5053885;28;20268;-62
2022/08/23 01:06:54;;;;;;;4.23;2.33;;;24.30;48.60;;;26.67;38.16;101450.59;5053824;28;20183;-63
2022/08/23 01:09:24;;;;;;;4.40;2.53;;;24.30;48.70;;;26.67;37.56;101457.91;5053683;28;20194;-61
2022/08/23 01:11:59;;;;;;;4.63;2.90;;;24.30;48.60;;;26.58;37.73;101452.16;5053582;28;20210;-61
2022/08/23 01:14:34;;;;;;;3.90;2.67;;;24.30;48.80;;;26.55;38.19;101447.31;5055434;28;20639;-62
2022/08/23 01:17:08;;;;;;;2.40;2.20;;;24.20;48.80;;;26.55;38.46;101446.50;5054966;28;20197;-61
2022/08/23 01:19:41;;;;;;;3.07;2.63;;;24.20;49.50;;;26.59;37.79;101453.81;5053653;28;20650;-62
2022/08/23 01:22:17;;;;;;;6.63;2.87;;;24.20;48.80;;;26.60;38.45;101460.81;5053200;28;20683;-62
2022/08/23 01:24:47;;;;;;;4.03;2.00;;;24.20;49.00;;;26.58;37.82;101457.56;5053739;28;20197;-61
2022/08/23 01:27:36;;;;;;;3.43;2.00;;;24.20;49.00;;;26.51;38.67;101457.00;5053478;28;20235;-61
2022/08/23 01:30:09;;;;;;;3.80;2.27;;;24.20;49.20;;;26.46;38.19;101456.97;5051710;28;20202;-62
2022/08/23 01:32:43;;;;;;;2.77;2.50;;;24.20;49.20;;;26.45;38.28;101459.94;5053063;28;20236;-61
2022/08/23 01:35:12;;;;;;;3.57;2.40;;;24.10;49.30;;;26.42;38.35;101452.34;5053301;28;20843;-61
2022/08/23 01:37:40;;;;;;;6.27;2.47;;;24.10;49.40;;;26.34;39.20;101453.66;5052982;28;20213;-61
2022/08/23 01:40:11;;;;;;;3.70;2.33;;;24.10;49.50;;;26.38;38.31;101456.66;5053231;28;20563;-62
2022/08/23 01:42:41;;;;;;;3.67;2.50;;;24.10;49.50;;;26.43;38.26;101449.41;5052758;28;20205;-63
2022/08/23 01:45:12;;;;;;;4.43;2.37;;;24.00;49.40;;;26.47;38.14;101455.06;5053578;28;20257;-60
2022/08/23 01:47:40;;;;;;;4.37;2.70;;;24.00;49.60;;;26.47;38.83;101455.91;5053356;28;20194;-62
2022/08/23 01:50:11;;;;;;;5.83;2.27;;;24.00;49.60;;;26.47;38.17;101455.91;5052253;28;20201;-62
2022/08/23 01:52:40;;;;;;;3.50;2.37;;;24.10;49.60;;;26.49;38.84;101455.63;5052840;28;20590;-61
2022/08/23 01:55:16;;;;;;;3.27;2.30;;;24.10;49.70;;;26.49;38.37;101467.25;5053382;28;20573;-60
2022/08/23 01:57:46;;;;;;;5.30;2.67;;;24.10;49.70;;;26.51;38.13;101457.00;5052998;28;20578;-62
2022/08/23 02:00:18;;;;;;;4.43;3.20;;;24.10;49.70;;;26.52;38.25;101461.34;5053087;28;20198;-62
2022/08/23 02:02:45;;;;;;;3.50;2.40;;;24.10;49.80;;;26.52;38.13;101463.22;5052925;28;20212;-62
2022/08/23 02:05:14;;;;;;;3.60;2.43;;;24.10;49.80;;;26.51;38.75;101457.00;5053215;28;20198;-59
2022/08/23 02:07:46;;;;;;;2.97;2.17;;;24.10;50.10;;;26.53;38.18;101462.16;5053278;28;20194;-61
2022/08/23 02:10:16;;;;;;;4.17;2.47;;;24.00;49.80;;;26.54;38.71;101455.66;5052897;28;20276;-61
2022/08/23 02:12:43;;;;;;;3.97;2.50;;;24.10;49.90;;;26.47;38.48;101455.06;5052665;28;20233;-62
2022/08/23 02:15:11;;;;;;;4.23;2.33;;;24.00;49.80;;;26.45;39.08;101458.06;5052778;28;20228;-61
2022/08/23 02:17:39;;;;;;;3.87;2.90;;;24.00;49.90;;;26.38;39.24;101452.06;5052971;28;20198;-63
2022/08/23 02:20:08;;;;;;;4.33;2.43;;;24.00;50.00;;;26.30;39.23;101454.44;5052788;28;20535;-61
2022/08/23 02:22:37;;;;;;;2.50;2.30;;;23.90;50.10;;;26.25;39.22;101444.41;5052431;28;20209;-61
2022/08/23 02:25:07;;;;;;;6.60;2.47;;;23.90;50.20;;;26.22;39.51;101458.44;5052579;28;20201;-62
2022/08/23 02:27:37;;;;;;;3.60;2.47;;;23.90;50.30;;;26.20;39.37;101449.78;5053791;28;20186;-62
2022/08/23 02:30:11;;;;;;;3.37;2.37;;;23.90;50.30;;;26.20;39.60;101455.19;5054255;28;20265;-61
2022/08/23 02:32:39;;;;;;;4.03;2.50;;;23.90;50.40;;;26.20;39.11;101457.88;5054163;28;20214;-62
2022/08/23 02:35:07;;;;;;;4.53;2.70;;;23.80;50.40;;;26.19;39.06;101449.00;5033459;28;20266;-62
2022/08/23 02:37:35;;;;;;;3.00;2.30;;;23.90;50.60;;;26.22;39.23;101450.34;5032989;28;20197;-62
2022/08/23 02:40:03;;;;;;;2.17;2.07;;;23.80;50.40;;;26.28;39.37;101457.41;5032704;28;20191;-61
2022/08/23 02:42:31;;;;;;;2.43;2.13;;;23.90;50.60;;;26.35;38.72;101457.16;5048911;28;20230;-61
2022/08/23 02:44:59;;;;;;;2.83;2.47;;;23.90;50.50;;;26.41;38.55;101454.22;5035992;28;20217;-62
2022/08/23 02:47:27;;;;;;;3.27;2.40;;;23.90;50.60;;;26.38;38.65;101462.88;5036587;28;20194;-61
2022/08/23 02:49:54;;;;;;;2.83;2.63;;;23.90;50.50;;;26.37;38.66;101463.13;5036527;28;20191;-61
2022/08/23 02:52:21;;;;;;;4.07;2.40;;;23.90;50.50;;;26.40;38.72;101449.09;5036021;28;20211;-61
2022/08/23 02:54:50;;;;;;;3.43;2.67;;;23.90;50.50;;;26.36;39.28;101458.81;5036047;28;20222;-61
2022/08/23 02:57:24;;;;;;;4.07;2.07;;;23.90;50.50;;;26.35;38.78;101458.00;5036232;28;20280;-61
2022/08/23 02:59:53;;;;;;;4.00;2.27;;;23.90;50.40;;;26.33;39.58;101454.75;5036101;28;20681;-61
2022/08/23 03:02:22;;;;;;;4.97;2.30;;;23.90;50.60;;;26.30;39.07;101457.97;5035804;28;20594;-62
2022/08/23 03:04:50;;;;;;;6.00;2.33;;;23.90;50.70;;;26.24;39.17;101461.72;5035989;28;20186;-61
2022/08/23 03:07:18;;;;;;;4.27;2.33;;;23.80;50.50;;;26.21;39.13;101462.22;5036034;28;20197;-62
2022/08/23 03:09:45;;;;;;;3.43;2.17;;;23.80;50.70;;;26.24;39.05;101466.28;5035981;28;20195;-63
2022/08/23 03:12:13;;;;;;;6.17;2.73;;;23.80;50.80;;;26.21;39.87;101456.81;5053228;28;20304;-62
2022/08/23 03:14:40;;;;;;;3.73;2.53;;;23.80;50.80;;;26.25;39.66;101460.63;5055983;28;20222;-60
2022/08/23 03:17:09;;;;;;;4.40;2.77;;;23.80;50.80;;;26.27;39.74;101461.16;5055955;28;20666;-60
2022/08/23 03:19:40;;;;;;;5.40;2.90;;;23.80;50.90;;;26.25;38.93;101455.22;5055993;28;20190;-60
2022/08/23 03:22:08;;;;;;;6.97;2.70;;;23.80;50.90;;;26.23;39.59;101468.16;5055520;28;20209;-61
2022/08/23 03:24:36;;;;;;;4.50;2.20;;;23.80;50.90;;;26.18;39.22;101458.16;5056255;28;20634;-61
2022/08/23 03:27:05;;;;;;;4.50;2.80;;;23.80;51.00;;;26.16;39.25;101464.88;5056341;28;20418;-62
2022/08/23 03:29:33;;;;;;;4.30;2.97;;;23.70;51.00;;;26.14;39.41;101462.47;5056013;28;20201;-62
2022/08/23 03:32:01;;;;;;;3.33;2.20;;;23.70;51.10;;;26.18;39.09;101473.53;5058205;28;20210;-63
2022/08/23 03:34:29;;;;;;;5.07;2.40;;;23.70;51.00;;;26.22;39.12;101477.34;5056157;28;20213;-62
2022/08/23 03:36:58;;;;;;;5.77;2.70;;;23.70;51.00;;;26.27;39.68;101482.78;5054465;28;20194;-61
2022/08/23 03:39:26;;;;;;;4.03;2.60;;;23.70;51.20;;;26.22;39.73;101477.34;5055478;28;20190;-61
2022/08/23 03:41:53;;;;;;;2.67;2.40;;;23.70;51.20;;;26.16;39.70;101481.91;5054844;28;20209;-61
2022/08/23 03:44:20;;;;;;;2.70;2.50;;;23.60;51.20;;;26.11;39.88;101478.34;5054722;28;20194;-62
2022/08/23 03:46:49;;;;;;;2.77;2.30;;;23.70;51.30;;;26.06;40.02;101480.97;5055694;28;20193;-62
2022/08/23 03:49:16;;;;;;;2.67;2.03;;;23.60;51.30;;;26.06;40.06;101470.16;5055283;28;20193;-62
2022/08/23 03:51:44;;;;;;;4.17;2.80;;;23.60;51.30;;;26.05;39.43;101474.75;5054732;28;20722;-63
2022/08/23 03:54:12;;;;;;;3.63;2.77;;;23.60;51.30;;;26.03;39.84;101476.13;5054645;28;20579;-61
2022/08/23 03:56:53;;;;;;;3.23;2.60;;;23.60;51.50;;;26.00;39.45;101477.44;5054740;28;20202;-61
2022/08/23 03:59:21;;;;;;;4.97;3.10;;;23.50;51.50;;;26.01;39.51;101478.22;5055070;28;20189;-62
2022/08/23 04:01:49;;;;;;;4.20;2.63;;;23.50;51.60;;;26.02;40.06;101475.28;5054414;28;20219;-60
2022/08/23 04:04:16;;;;;;;4.07;2.97;;;23.50;51.60;;;26.05;40.12;101479.34;5054717;28;20182;-61
2022/08/23 04:06:44;;;;;;;5.30;2.80;;;23.50;51.70;;;26.07;39.85;101488.00;5057986;28;20208;-62
2022/08/23 04:09:14;;;;;;;3.77;2.67;;;23.50;51.70;;;26.05;39.53;101490.16;5074622;28;20553;-62
2022/08/23 04:11:42;;;;;;;4.97;2.60;;;23.50;51.70;;;26.04;40.11;101493.91;5061325;28;20237;-61
2022/08/23 04:14:11;;;;;;;5.20;2.90;;;23.50;51.70;;;25.99;39.62;101491.16;5054787;28;20218;-61
2022/08/23 04:16:39;;;;;;;5.13;2.80;;;23.50;51.80;;;25.96;40.35;101494.41;5053912;28;20221;-62
2022/08/23 04:19:11;;;;;;;3.73;3.07;;;23.40;51.70;;;25.97;40.16;101493.31;5054571;28;20205;-62
2022/08/23 04:21:47;;;;;;;3.37;2.23;;;23.40;51.80;;;25.95;39.84;101487.38;5053959;28;20259;-62
2022/08/23 04:24:16;;;;;;;5.17;2.70;;;23.40;51.80;;;25.92;40.31;101483.31;5054674;28;20193;-61
2022/08/23 04:26:44;;;;;;;5.23;2.90;;;23.40;51.70;;;25.88;39.92;101487.59;5054503;28;20347;-62
2022/08/23 04:29:16;;;;;;;5.00;2.97;;;23.40;52.00;;;25.85;39.83;101489.97;5054378;28;20194;-61
2022/08/23 04:32:01;;;;;;;6.47;3.33;;;23.40;51.90;;;25.82;40.21;101495.88;5053916;28;20213;-63
2022/08/23 04:34:32;;;;;;;3.93;2.90;;;23.40;52.80;;;25.78;40.22;101487.50;5054235;28;20202;-62
2022/08/23 04:37:00;;;;;;;4.87;2.70;;;23.30;52.10;;;25.80;40.78;101489.94;5054044;28;20244;-61
2022/08/23 04:42:16;;;;;;;4.20;2.70;;;23.30;52.90;;;25.82;40.28;101490.47;5054384;28;20649;-63
2022/08/23 04:42:22;;;;;;;5.13;2.80;;;23.30;52.20;;;25.79;40.07;101496.41;5053505;28;20237;-61
2022/08/23 04:44:49;;;;;;;5.40;3.20;;;23.30;52.30;;;25.83;39.87;101509.13;5053803;28;20623;-60
2022/08/23 04:47:17;;;;;;;5.47;3.57;;;23.30;52.30;;;25.84;40.07;101504.56;5069245;28;20193;-61
2022/08/23 04:49:45;;;;;;;6.63;2.97;;;23.30;52.30;;;25.88;39.78;101505.66;5054375;28;20190;-61
2022/08/23 04:52:13;;;;;;;3.60;2.43;;;23.30;52.30;;;25.92;39.75;101501.38;5053540;28;20213;-61
2022/08/23 04:54:47;;;;;;;5.43;2.90;;;23.30;52.30;;;25.92;39.86;101517.56;5052844;28;20210;-62
2022/08/23 04:57:14;;;;;;;4.47;2.63;;;23.30;52.40;;;25.94;39.85;101507.31;5052454;28;20209;-63
2022/08/23 04:59:42;;;;;;;4.57;2.93;;;23.40;52.30;;;25.94;40.42;101512.72;5054285;28;20193;-61
2022/08/23 05:02:09;;;;;;;6.37;3.57;;;23.40;52.40;;;25.93;40.38;101517.31;5053671;28;20212;-62
2022/08/23 05:04:36;;;;;;;4.40;3.10;;;23.40;52.30;;;25.94;40.06;101510.84;5053269;28;20272;-61
2022/08/23 05:07:04;;;;;;;5.47;3.13;;;23.40;52.30;;;25.88;40.53;101517.28;5052890;28;20454;-61
2022/08/23 05:09:31;;;;;;;5.73;3.10;;;23.30;52.30;;;25.88;40.10;101511.88;5053691;28;20659;-59
2022/08/23 05:12:00;;;;;;;5.63;2.87;;;23.40;52.40;;;25.90;40.17;101515.13;5053175;28;20682;-62
2022/08/23 05:14:27;;;;;;;7.17;3.13;;;23.40;52.40;;;25.89;40.19;101513.50;5053224;28;20210;-61
2022/08/23 05:16:55;;;;;;;6.13;2.67;;;23.40;52.50;;;25.90;40.53;101520.53;5053006;28;20194;-63
2022/08/23 05:19:23;;;;;;;4.90;2.70;;;23.30;52.40;;;25.88;40.45;101511.06;5053281;28;20189;-61
2022/08/23 05:21:50;;;;;;;9.67;3.27;;;23.40;52.50;;;25.85;40.25;101519.66;5052715;28;20220;-61
2022/08/23 05:24:23;;;;;;;10.17;3.27;;;23.30;52.50;;;25.84;40.25;101528.84;5053349;28;20310;-62
2022/08/23 05:26:50;;;;;;;5.90;3.50;;;23.30;52.50;;;25.81;40.42;101526.66;5053282;28;20197;-60
2022/08/23 05:29:20;;;;;;;4.40;2.90;;;23.30;52.60;;;25.80;40.25;101530.41;5053328;28;20268;-61
2022/08/23 05:31:47;;;;;;;4.87;3.00;;;23.30;52.70;;;25.78;40.39;101524.44;5052807;28;20218;-60
2022/08/23 05:34:16;;;;;;;5.53;3.07;;;23.30;52.70;;;25.73;40.71;101524.41;5085421;28;20209;-63
2022/08/23 05:36:49;;;;;;;6.33;2.83;;;23.30;52.90;;;25.69;41.13;101532.22;5053676;28;20213;-60
2022/08/23 05:39:23;;;;;;;8.10;3.27;;;23.30;52.90;;;25.69;40.96;101528.69;5053187;28;20218;-62
2022/08/23 05:42:03;;;;;;;7.93;4.00;;;23.20;53.10;;;25.63;41.07;101535.91;5052750;28;20288;-61
2022/08/23 05:44:32;;;;;;;7.27;3.30;;;23.20;53.20;;;25.63;40.81;101527.00;5052609;28;20713;-62
2022/08/23 05:47:05;;;;;;;9.27;3.67;;;23.20;53.20;;;25.62;41.33;101530.78;5052633;28;20201;-62
2022/08/23 05:49:39;;;;;;;8.83;3.07;;;23.20;53.30;;;25.60;41.38;101536.44;5052779;28;20239;-60
2022/08/23 05:52:10;;;;;;;4.03;2.93;;;23.20;53.30;;;25.62;41.00;101544.25;5052041;28;20259;-62
2022/08/23 05:54:39;;;;;;;4.33;2.90;;;23.20;53.30;;;25.67;41.28;101541.63;5053336;28;20205;-62
2022/08/23 05:57:07;;;;;;;4.77;3.10;;;23.20;53.40;;;25.69;41.44;101547.56;5052150;28;20204;-63
2022/08/23 05:59:36;;;;;;;6.93;3.23;;;23.20;53.30;;;25.74;40.65;101547.63;5052641;28;20197;-62
2022/08/23 06:02:04;;;;;;;4.90;3.27;;;23.20;53.30;;;25.78;41.06;101556.81;5052298;28;20571;-61
2022/08/23 06:04:32;;;;;;;6.97;2.90;;;23.30;53.30;;;25.88;40.94;101548.84;5054463;28;20201;-62
2022/08/23 06:06:59;;;;;;;3.37;2.63;;;23.30;53.20;;;25.94;40.91;101550.50;5051865;28;20772;-65
2022/08/23 06:09:27;;;;;;;3.93;3.33;;;23.40;53.00;;;25.95;40.21;101550.25;5052726;28;20616;-64
2022/08/23 06:11:54;;;;;;;4.73;3.13;;;23.40;52.80;;;26.01;40.91;101559.19;5052370;28;20297;-62
2022/08/23 06:14:22;;;;;;;5.57;2.97;;;23.50;52.90;;;26.00;40.05;101557.59;5053288;28;20216;-65
2022/08/23 06:16:52;;;;;;;4.77;3.03;;;23.50;52.50;;;26.08;40.01;101555.22;5055106;28;20190;-64
2022/08/23 06:19:23;;;;;;;3.00;2.70;;;23.50;52.60;;;26.18;40.15;101554.53;5057244;28;20188;-62
2022/08/23 06:21:51;;;;;;;3.10;2.87;;;23.60;52.50;;;26.23;39.99;101559.97;5057080;28;20678;-61
2022/08/23 06:24:19;;;;;;;5.67;2.90;;;23.70;52.10;;;26.22;40.33;101563.72;5056984;28;20204;-62
2022/08/23 06:26:47;;;;;;;2.97;2.77;;;23.70;51.90;;;26.19;39.59;101567.78;5057066;28;20185;-62
2022/08/23 06:29:17;;;;;;;4.60;2.70;;;23.70;51.70;;;26.26;39.59;101562.16;5056806;28;20194;-62
2022/08/23 06:31:49;;;;;;;4.07;2.70;;;23.80;52.00;;;26.39;39.37;101564.41;5056102;28;20210;-61
2022/08/23 06:34:23;;;;;;;7.30;2.97;;;23.90;52.00;;;26.44;39.73;101575.25;5056881;28;20213;-61
2022/08/23 06:36:53;;;;;;;7.00;2.73;;;23.90;51.70;;;26.47;39.71;101569.34;5059270;28;20179;-62
2022/08/23 06:39:24;;;;;;;5.67;3.20;;;23.90;51.60;;;26.43;39.60;101583.63;5062407;28;20224;-63
2022/08/23 06:41:55;;;;;;;3.00;2.63;;;24.00;51.50;;;26.39;39.84;101583.31;5060914;28;20218;-64
2022/08/23 06:44:23;;;;;;;4.17;2.73;;;24.00;51.60;;;26.35;39.22;101582.19;5057967;28;20267;-62
2022/08/23 06:46:50;;;;;;;3.93;2.83;;;24.00;51.50;;;26.37;39.44;101580.06;5057214;28;20273;-63
2022/08/23 06:49:19;;;;;;;8.03;3.30;;;23.90;51.50;;;26.34;39.31;101579.78;5056530;28;20216;-62
2022/08/23 06:51:51;;;;;;;8.20;3.03;;;23.90;51.40;;;26.46;39.81;101583.91;5057829;28;20304;-63
2022/08/23 06:54:23;;;;;;;3.83;2.90;;;24.00;51.60;;;26.47;39.01;101580.13;5058580;28;20245;-63
2022/08/23 06:56:54;;;;;;;3.90;2.80;;;24.00;51.20;;;26.59;39.19;101578.06;5059904;28;20236;-63
2022/08/23 06:59:22;;;;;;;5.43;2.87;;;24.10;51.50;;;26.73;39.51;101579.25;5058408;28;20208;-61
2022/08/23 07:01:53;;;;;;;5.00;2.83;;;24.20;51.40;;;26.79;38.63;101578.22;5059643;28;20228;-61
2022/08/23 07:04:26;;;;;;;4.70;3.40;;;24.30;51.10;;;27.00;38.30;101578.34;5057956;28;20186;-61
2022/08/23 07:06:54;;;;;;;5.17;3.50;;;24.40;50.90;;;27.06;38.72;101582.69;5057907;28;20182;-62
2022/08/23 07:09:22;;;;;;;8.20;3.80;;;24.50;50.50;;;27.14;37.96;101579.50;5058202;28;20190;-62
2022/08/23 07:11:50;;;;;;;6.87;3.10;;;24.60;50.30;;;27.31;38.06;101580.09;5057042;28;20206;-61
2022/08/23 07:14:21;;;;;;;6.57;4.03;;;24.70;50.40;;;27.41;37.46;101577.44;5058852;28;20190;-62
2022/08/23 07:16:51;;;;;;;4.17;2.90;;;24.70;49.90;;;27.51;37.46;101580.19;5056943;28;20193;-63
2022/08/23 07:19:26;;;;;;;3.53;3.10;;;24.90;49.70;;;27.62;36.97;101581.03;5056165;28;20178;-62
2022/08/23 07:21:56;;;;;;;5.23;3.17;;;25.00;49.50;;;27.75;37.31;101578.63;5057289;28;20238;-63
2022/08/23 07:24:26;;;;;;;18.30;3.53;;;25.10;49.50;;;27.77;36.91;101579.16;5056743;28;20273;-62
2022/08/23 07:27:05;;;;;;;3.93;3.23;;;25.20;48.80;;;27.82;37.46;101587.31;5055280;28;20181;-61
2022/08/23 07:29:34;;;;;;;4.47;2.90;;;25.20;48.80;;;27.89;36.70;101585.16;5053563;28;20205;-62
2022/08/23 07:32:02;;;;;;;3.77;2.53;;;25.30;48.60;;;27.99;36.73;101582.50;5056019;28;20328;-59
2022/08/23 07:34:32;;;;;;;5.73;2.80;;;25.30;48.20;;;28.15;36.06;101573.28;5055397;28;20190;-61
2022/08/23 07:37:00;;;;;;;8.07;2.80;;;25.40;48.10;;;28.31;35.81;101573.28;5063105;28;20746;-61
2022/08/23 07:39:30;;;;;;;4.03;2.80;;;25.60;47.70;;;28.44;35.77;101575.44;5058050;28;20198;-62
2022/08/23 07:41:59;;;;;;;4.67;2.77;;;25.70;47.50;;;28.61;35.37;101578.72;5066894;28;20820;-64
2022/08/23 07:44:27;;;;;;;5.13;2.63;;;25.80;47.30;;;28.86;34.87;101586.78;5066629;28;20305;-59
2022/08/23 07:46:55;;;;;;;4.60;2.83;;;26.00;47.00;;;28.99;34.79;101578.06;5064785;28;20194;-63
2022/08/23 07:49:22;;;;;;;5.70;2.80;;;26.10;46.40;;;29.00;34.39;101581.59;5068496;28;20276;-62
2022/08/23 07:51:57;;;;;;;6.30;2.67;;;26.20;45.90;;;29.04;34.32;101580.78;5057797;28;20225;-62
2022/08/23 07:54:27;;;;;;;7.67;3.37;;;26.30;45.60;;;29.16;34.44;101583.97;5058136;28;20195;-63
2022/08/23 07:56:54;;;;;;;4.37;2.70;;;26.40;45.60;;;29.30;34.21;101593.19;5066104;28;20213;-63
2022/08/23 07:59:22;;;;;;;6.57;2.97;;;26.50;45.10;;;29.44;33.59;101586.06;5073585;28;20204;-63
2022/08/23 08:01:50;;;;;;;4.63;2.57;;;26.60;44.80;;;29.58;33.03;101590.84;5074873;28;20215;-62
2022/08/23 08:04:17;;;;;;;6.13;2.93;;;26.70;44.40;;;29.90;32.89;101593.97;5058565;28;20198;-60
2022/08/23 08:06:49;;;;;;;3.37;2.60;;;26.90;44.30;;;30.59;32.41;101594.50;5084818;28;20550;-62
2022/08/23 08:09:38;;;;;;;3.37;2.63;;;27.20;43.70;;;31.18;30.70;101590.59;5068194;28;20189;-62
2022/08/23 08:12:06;;;;;;;5.47;2.27;;;27.60;42.60;;;31.92;29.71;101606.22;5059676;27;20939;-63
2022/08/23 08:14:34;;;;;;;4.70;2.47;;;28.00;41.90;;;32.84;28.95;101585.31;5059153;28;20533;-62
2022/08/23 08:17:03;;;;;;;5.43;2.60;;;28.50;40.80;;;33.60;27.52;101591.94;5055353;28;20802;-62
2022/08/23 08:19:30;;;;;;;6.13;2.70;;;29.10;39.50;;;34.31;26.68;101594.63;5055204;28;20659;-62
2022/08/23 08:21:58;;;;;;;3.03;2.40;;;29.70;38.30;;;35.13;25.46;101596.81;5061810;28;20226;-62
2022/08/23 08:24:25;;;;;;;3.10;2.83;;;30.30;36.80;;;35.66;24.67;101594.66;5071393;28;20189;-63
2022/08/23 08:26:54;;;;;;;3.70;2.67;;;30.80;35.50;;;36.23;23.79;101592.53;5061858;28;20182;-62
2022/08/23 08:29:21;;;;;;;3.23;2.27;;;31.30;34.50;;;36.59;22.82;101592.16;5064041;28;20201;-62
2022/08/23 08:31:50;;;;;;;5.43;3.23;;;31.70;32.80;;;37.09;22.42;101593.06;5048687;28;20260;-61
2022/08/23 08:34:21;;;;;;;3.95;2.30;;;32.30;32.50;;;37.43;22.18;101597.59;5073701;28;20219;-63
2022/08/23 08:36:52;;;;;;;4.25;3.88;;;32.60;31.50;;;37.98;22.37;101597.31;5073360;28;20207;-62
2022/08/23 08:39:23;;;;;;;4.20;2.58;;;33.10;31.80;;;38.39;20.75;101600.00;5073986;28;20220;-60
2022/08/23 08:42:18;;;;;;;10.30;3.03;;;33.40;30.00;;;38.56;20.95;101597.03;5063448;28;20213;-64
2022/08/23 08:44:52;;;;;;;3.20;2.88;;;33.80;29.80;;;38.85;20.81;101604.31;5061383;28;20212;-64
2022/08/23 08:47:33;;;;;;;6.68;2.80;;;34.10;29.30;;;38.94;20.33;101606.97;5053771;28;20217;-62
2022/08/23 08:50:14;;;;;;;3.88;2.13;;;34.30;28.50;;;38.98;20.36;101605.13;5086496;28;20197;-63
2022/08/23 08:52:50;;;;;;;4.85;2.47;;;34.40;28.70;;;39.07;20.19;101603.84;5051555;28;20221;-64
2022/08/23 08:55:25;;;;;;;4.22;3.00;;;34.60;28.20;;;39.36;19.86;101597.28;5063948;28;20209;-62
2022/08/23 08:57:54;;;;;;;3.22;2.60;;;34.70;28.00;;;39.42;19.24;101595.88;5068489;28;20224;-62
2022/08/23 09:00:27;;;;;;;3.83;2.58;;;34.70;27.50;;;38.91;19.87;101604.91;5063864;28;20197;-62
2022/08/23 09:02:57;;;;;;;4.05;2.78;;;34.60;27.70;;;38.99;20.40;101604.75;5067607;28;20300;-62
2022/08/23 09:05:30;;;;;;;4.13;2.55;;;34.70;28.10;;;39.44;19.65;101607.38;5065653;28;20220;-63
2022/08/23 09:08:26;;;;;;;3.55;2.90;;;34.80;27.80;;;39.62;19.47;101611.50;5058324;28;20186;-61
2022/08/23 09:11:05;;;;;;;3.92;3.10;;;34.90;27.50;;;39.79;18.91;101607.66;5059614;28;20189;-63
2022/08/23 09:14:15;;;;;;;4.60;2.85;;;35.10;27.60;;;39.78;18.96;101609.59;5061163;28;20228;-62
2022/08/23 09:16:52;;;;;;;5.35;2.42;;;35.30;27.40;;;39.74;19.09;101614.22;5045397;28;20211;-61
2022/08/23 09:19:22;;;;;;;3.28;2.60;;;35.30;27.00;;;39.63;19.11;101610.34;5066737;28;20197;-62
2022/08/23 09:21:57;;;;;;;4.55;2.83;;;35.20;26.90;;;39.49;19.34;101601.63;5057278;28;20221;-62
2022/08/23 09:24:26;;;;;;;3.33;3.03;;;35.20;27.00;;;39.36;19.40;101602.81;5058099;28;20208;-64
2022/08/23 09:26:55;;;;;;;6.80;2.65;;;35.10;26.90;;;39.48;19.48;101605.53;5056826;28;20194;-64
2022/08/23 09:29:27;;;;;;;3.30;2.60;;;35.20;26.90;;;39.66;19.11;101600.56;5063144;28;20295;-62
2022/08/23 09:32:01;;;;;;;5.25;2.63;;;35.30;26.90;;;40.05;18.85;101601.72;5055724;28;20222;-63
2022/08/23 09:34:41;;;;;;;4.50;2.53;;;35.40;26.50;;;40.14;18.67;101600.41;5055427;28;20197;-62
2022/08/23 09:37:19;;;;;;;4.47;2.95;;;35.40;26.20;;;40.56;18.03;101597.97;5063129;28;20209;-61
2022/08/23 09:39:50;;;;;;;6.30;2.70;;;35.70;26.50;;;40.81;18.00;101596.63;5068451;28;20268;-61
2022/08/23 09:42:34;;;;;;;4.35;2.95;;;35.80;26.00;;;41.27;17.37;101596.94;5070959;28;20295;-62
2022/08/23 09:45:22;;;;;;;4.32;2.65;;;36.20;25.80;;;41.80;17.39;101579.53;5059321;28;20212;-62
2022/08/23 09:47:50;;;;;;;4.18;2.85;;;36.50;25.80;;;42.08;16.59;101588.34;5055709;28;20204;-62
2022/08/23 09:50:27;;;;;;;3.80;2.95;;;36.80;24.90;;;42.00;16.53;101589.41;5058952;28;20205;-62
2022/08/23 09:52:59;;;;;;;3.40;3.10;;;36.90;24.50;;;42.20;17.02;101596.53;5080219;28;20213;-62
2022/08/23 09:55:32;;;;;;;2.90;2.55;;;37.10;24.70;;;42.44;16.29;101590.63;5052250;28;20220;-62
2022/08/23 09:58:03;;;;;;;4.97;3.55;;;37.30;24.50;;;42.83;15.82;101584.94;5066856;28;20211;-62
2022/08/23 10:00:36;;;;;;;4.60;2.45;;;37.50;23.90;;;43.06;15.71;101594.03;5042749;28;20197;-62
2022/08/23 10:03:24;;;;;;;4.68;2.83;;;37.70;23.80;;;43.60;15.59;101596.41;5052498;28;20241;-62
2022/08/23 10:05:56;;;;;;;4.38;2.75;;;38.00;23.60;;;43.42;15.12;101582.28;5061613;28;20655;-62
2022/08/23 10:08:28;;;;;;;3.75;2.72;;;38.00;22.80;;;43.48;15.16;101578.00;5072483;28;20192;-64
2022/08/23 10:11:04;;;;;;;6.22;5.63;;;38.30;23.00;;;43.27;15.03;101586.00;5062786;28;20221;-62
2022/08/23 10:13:42;;;;;;;4.13;2.80;;;38.20;22.50;;;43.33;14.94;101575.44;5053165;28;20206;-64
2022/08/23 10:16:29;;;;;;;4.75;2.90;;;38.20;22.50;;;43.67;14.85;101579.81;5053280;28;20213;-63
2022/08/23 10:19:09;;;;;;;3.25;2.50;;;38.40;22.50;;;43.84;14.82;101582.00;5065429;28;20196;-64
2022/08/23 10:21:44;;;;;;;4.07;3.08;;;38.50;23.10;;;44.19;14.77;101584.41;5062945;28;20292;-63
2022/08/23 10:24:27;;;;;;;5.75;3.05;;;38.70;22.30;;;44.29;13.82;101575.38;5067067;28;20189;-63
2022/08/23 10:30:09;;;;;;;6.15;3.00;;;38.80;21.50;;;43.79;13.97;101573.25;5055774;28;20583;-63
2022/08/23 10:32:58;;;;;;;2.67;2.47;;;38.70;21.00;;;43.47;14.05;101576.41;5052242;28;20219;-61
2022/08/23 10:35:38;;;;;;;3.90;2.63;;;38.60;21.80;;;43.04;14.79;101571.44;5058009;28;20194;-64
2022/08/23 10:38:39;;;;;;;5.20;2.83;;;38.40;21.70;;;42.62;15.12;101579.88;5033930;28;20666;-63
2022/08/23 10:41:42;;;;;;;3.08;2.20;;;38.40;21.80;;;41.39;15.68;101574.69;5050561;28;20227;-62